createdAt,value
2022-12-23T00:00:20.959Z,2.25
2022-12-23T00:01:25.769Z,2.38
2022-12-23T00:02:30.210Z,2.60
2022-12-23T00:03:33.789Z,2.58
2022-12-23T00:04:36.061Z,2.50
2022-12-23T00:05:39.824Z,2.22
2022-12-23T00:06:42.451Z,2.22
2022-12-23T00:07:44.988Z,2.33
2022-12-23T00:08:47.284Z,2.50
2022-12-23T00:09:49.542Z,2.60
2022-12-23T00:10:53.580Z,2.50
2022-12-23T00:12:14.061Z,2.92
2022-12-23T00:13:36.235Z,2.80
2022-12-23T00:14:56.892Z,2.40
2022-12-23T00:16:02.669Z,2.78
2022-12-23T00:17:12.929Z,3.25
2022-12-23T00:18:23.817Z,3.22
2022-12-23T00:19:26.113Z,3.17
2022-12-23T00:20:28.755Z,2.85
2022-12-23T00:21:30.984Z,2.72
2022-12-23T00:22:51.607Z,2.90
2022-12-23T00:23:54.034Z,2.60
2022-12-23T00:24:56.286Z,2.67
2022-12-23T00:25:58.703Z,2.13
2022-12-23T00:27:00.860Z,2.38
2022-12-23T00:28:03.273Z,2.28
2022-12-23T00:29:05.930Z,1.77
2022-12-23T00:30:10.096Z,2.00
2022-12-23T00:31:13.676Z,2.10
2022-12-23T00:32:16.060Z,4.00
2022-12-23T00:33:21.400Z,3.30
2022-12-23T00:34:23.742Z,2.90
2022-12-23T00:35:26.012Z,2.47
2022-12-23T00:36:30.590Z,1.67
2022-12-23T00:37:32.992Z,1.60
2022-12-23T00:38:53.643Z,1.40
2022-12-23T00:40:14.167Z,1.00
2022-12-23T00:41:37.185Z,2.15
2022-12-23T00:43:56.870Z,1.10
2022-12-23T00:45:15.599Z,1.00
2022-12-23T00:46:18.339Z,1.02
2022-12-23T00:47:39.145Z,0.90
2022-12-23T00:48:59.785Z,0.93
2022-12-23T00:50:01.980Z,1.00
2022-12-23T00:51:06.044Z,0.93
2022-12-23T00:52:11.772Z,1.02
2022-12-23T00:53:13.974Z,0.93
2022-12-23T00:54:20.277Z,0.90
2022-12-23T00:55:22.681Z,0.70
2022-12-23T00:56:24.917Z,0.80
2022-12-23T00:57:27.970Z,0.80
2022-12-23T00:58:31.989Z,0.80
2022-12-23T00:59:34.584Z,0.55
2022-12-23T01:00:55.795Z,0.93
2022-12-23T01:02:17.414Z,0.88
2022-12-23T01:03:39.011Z,1.05
2022-12-23T01:05:20.348Z,0.60
2022-12-23T01:06:23.350Z,0.65
2022-12-23T01:07:26.143Z,0.90
2022-12-23T01:08:29.071Z,0.80
2022-12-23T01:09:31.927Z,0.77
2022-12-23T01:10:36.207Z,1.10
2022-12-23T01:11:38.550Z,0.70
2022-12-23T01:12:40.965Z,0.90
2022-12-23T01:13:43.252Z,0.70
2022-12-23T01:14:45.828Z,0.77
2022-12-23T01:15:48.309Z,0.90
2022-12-23T01:16:50.651Z,1.17
2022-12-23T01:17:53.198Z,0.70
2022-12-23T01:18:55.819Z,0.95
2022-12-23T01:19:58.346Z,0.95
2022-12-23T01:21:09.920Z,1.10
2022-12-23T01:22:12.192Z,0.95
2022-12-23T01:23:14.617Z,0.80
2022-12-23T01:24:17.019Z,0.73
2022-12-23T01:25:19.993Z,0.60
2022-12-23T01:26:22.668Z,0.60
2022-12-23T01:27:25.245Z,0.60
2022-12-23T01:28:28.943Z,0.55
2022-12-23T01:29:31.317Z,0.80
2022-12-23T01:30:33.562Z,0.73
2022-12-23T01:31:35.948Z,0.60
2022-12-23T01:32:38.158Z,0.68
2022-12-23T01:33:40.742Z,0.60
2022-12-23T01:34:43.101Z,0.75
2022-12-23T01:35:45.772Z,0.82
2022-12-23T01:36:48.071Z,0.73
2022-12-23T01:37:50.307Z,0.65
2022-12-23T01:38:52.911Z,0.60
2022-12-23T01:39:55.113Z,0.50
2022-12-23T01:40:57.764Z,0.57
2022-12-23T01:42:19.108Z,0.45
2022-12-23T01:43:22.011Z,0.40
2022-12-23T01:44:57.554Z,0.50
2022-12-23T01:45:59.985Z,0.70
2022-12-23T01:47:13.237Z,0.60
2022-12-23T01:48:24.422Z,0.70
2022-12-23T01:49:26.900Z,0.70
2022-12-23T01:51:01.911Z,0.93
2022-12-23T01:52:04.273Z,0.90
2022-12-23T01:53:20.290Z,0.60
2022-12-23T01:54:22.546Z,1.13
2022-12-23T01:55:27.773Z,0.73
2022-12-23T01:56:39.994Z,0.80
2022-12-23T01:57:44.183Z,0.70
2022-12-23T01:58:52.456Z,1.20
